Time;durP1;ratioP1;P1;durP2;ratioP2;P2;SDS_P1;SDS_P2;PMS_P1;PMS_P2;Temp;Humidity;BMP_temperature;BMP_pressure;BME280_temperature;BME280_humidity;BME280_pressure;Samples;Min_cycle;Max_cycle;Signal;HPM_P1;HPM_P2
2022/08/11 00:00:11;;;;;;;7.43;5.28;;;;;;;21.69;49.13;102137.34;5049881;28;20570;-60
2022/08/11 00:02:47;;;;;;;7.80;5.55;;;;;;;21.64;49.10;102136.47;5047049;28;20107;-60
2022/08/11 00:05:20;;;;;;;7.47;5.28;;;;;;;21.59;49.84;102138.25;5049723;28;20036;-60
2022/08/11 00:07:52;;;;;;;10.85;6.00;;;;;;;21.57;49.40;102140.91;5047221;28;20092;-59
2022/08/11 00:10:24;;;;;;;9.20;5.88;;;;;;;21.51;49.35;102141.78;5043877;28;20032;-60
2022/08/11 00:12:53;;;;;;;8.07;5.60;;;;;;;21.47;50.11;102139.13;5049925;28;20039;-60
2022/08/11 00:15:19;;;;;;;10.80;6.00;;;;;;;21.43;50.59;102135.56;5051052;28;20021;-60
2022/08/11 00:17:46;;;;;;;9.13;5.93;;;;;;;21.39;50.45;102138.22;5052054;28;20100;-60
2022/08/11 00:20:14;;;;;;;9.43;5.78;;;;;;;21.34;50.24;102135.59;5048000;28;20028;-60
2022/08/11 00:22:41;;;;;;;8.65;5.60;;;;;;;21.30;51.03;102137.34;5049725;28;20467;-59
2022/08/11 00:25:10;;;;;;;10.73;5.70;;;;;;;21.28;50.96;102136.47;5048867;28;20025;-60
2022/08/11 00:27:36;;;;;;;8.75;5.90;;;;;;;21.28;50.26;102135.59;5049576;28;20029;-60
2022/08/11 00:30:04;;;;;;;8.73;6.00;;;;;;;21.23;50.88;102137.34;5046299;28;20035;-60
2022/08/11 00:32:30;;;;;;;9.13;5.93;;;;;;;21.21;50.63;102132.03;5050246;28;20033;-60
2022/08/11 00:34:57;;;;;;;9.73;6.05;;;;;;;21.17;50.33;102136.47;5049732;28;20450;-59
2022/08/11 00:37:23;;;;;;;7.60;5.88;;;;;;;21.09;50.70;102134.72;5042298;28;20058;-60
2022/08/11 00:39:51;;;;;;;9.02;6.05;;;;;;;21.07;50.72;102134.69;5041790;28;20059;-60
2022/08/11 00:42:31;;;;;;;8.00;5.97;;;;;;;21.11;50.29;102140.88;5036475;28;20116;-60
2022/08/11 00:45:12;;;;;;;7.47;6.00;;;;;;;21.06;50.84;102134.69;5048030;28;20108;-60
2022/08/11 00:47:56;;;;;;;7.60;5.85;;;;;;;21.01;49.89;102132.94;5049455;28;20107;-60
2022/08/11 00:50:45;;;;;;;9.02;5.57;;;;;;;21.00;49.91;102131.16;5049052;28;20036;-60
2022/08/11 00:53:32;;;;;;;8.52;6.07;;;;;;;20.97;50.41;102140.84;5047562;28;20036;-60
2022/08/11 00:56:13;;;;;;;8.50;5.80;;;;;;;20.93;50.80;102136.44;5048810;28;20041;-60
2022/08/11 00:59:07;;;;;;;8.52;6.03;;;;;;;20.86;51.17;102130.25;5047277;28;20127;-60
2022/08/11 01:01:36;;;;;;;7.95;5.60;;;;;;;20.83;50.91;102128.50;5050555;28;20488;-60
2022/08/11 01:04:38;;;;;;;8.83;5.97;;;;;;;20.84;50.47;102126.72;5048303;28;20033;-60
2022/08/11 01:07:12;;;;;;;8.27;5.85;;;;;;;20.78;51.05;102121.41;5043186;28;20810;-61
2022/08/11 01:09:58;;;;;;;8.38;6.32;;;;;;;20.73;50.79;102123.19;5046101;28;20136;-60
2022/08/11 01:12:39;;;;;;;8.07;5.78;;;;;;;20.71;51.46;102128.47;5049309;28;20033;-60
2022/08/11 01:15:32;;;;;;;9.38;6.30;;;;;;;20.71;51.26;102127.59;5043469;28;20041;-60
2022/08/11 01:18:19;;;;;;;8.02;5.97;;;;;;;20.63;51.59;102127.53;5045856;28;20044;-61
2022/08/11 01:21:29;;;;;;;8.35;6.53;;;;;;;20.60;51.61;102117.81;5039867;28;20115;-60
2022/08/11 01:24:25;;;;;;;8.00;6.03;;;;;;;20.56;51.63;102131.91;5047956;28;20476;-61
2022/08/11 01:27:21;;;;;;;11.18;6.50;;;;;;;20.51;51.98;102133.69;5048933;28;20443;-60
2022/08/11 01:30:07;;;;;;;8.05;6.13;;;;;;;20.49;52.34;102136.34;5043709;28;20025;-60
2022/08/11 01:32:51;;;;;;;8.70;6.18;;;;;;;20.48;51.80;102144.28;5050286;28;20032;-60
2022/08/11 01:35:53;;;;;;;8.43;6.25;;;;;;;20.43;51.58;102141.59;5046566;28;20473;-60
2022/08/11 01:38:37;;;;;;;7.72;6.13;;;;;;;20.37;52.61;102128.34;5047397;28;20111;-60
2022/08/11 01:44:36;;;;;;;7.47;6.57;;;;;;;20.36;52.09;102131.00;5049543;28;20619;-60
2022/08/11 01:44:45;;;;;;;10.02;6.38;;;;;;;20.33;52.59;102131.84;5046726;28;20041;-59
2022/08/11 01:47:50;;;;;;;9.25;6.35;;;;;;;20.29;51.99;102133.63;5045586;28;20622;-59
2022/08/11 01:50:46;;;;;;;8.23;6.70;;;;;;;20.25;52.97;102131.84;5048742;28;20029;-61
2022/08/11 01:53:44;;;;;;;9.63;6.28;;;;;;;20.23;52.47;102138.88;5042530;28;20048;-60
2022/08/11 01:56:09;;;;;;;8.02;6.80;;;;;;;20.17;53.09;102135.31;5017615;28;20032;-59
2022/08/11 01:58:56;;;;;;;10.17;7.10;;;;;;;20.11;52.69;102144.13;5044852;28;20264;-58
2022/08/11 02:01:43;;;;;;;9.48;7.10;;;;;;;20.04;52.64;102137.03;5047709;28;20499;-59
2022/08/11 02:04:28;;;;;;;9.25;7.10;;;;;;;20.00;52.38;102133.47;5045351;28;20079;-60
2022/08/11 02:07:09;;;;;;;9.05;7.45;;;;;;;19.97;52.88;102141.38;5048450;28;20060;-60
2022/08/11 02:09:49;;;;;;;10.85;6.88;;;;;;;19.91;53.17;102142.25;5045351;28;20082;-60
2022/08/11 02:12:39;;;;;;;9.57;7.10;;;;;;;19.92;52.78;102143.16;5047435;28;20039;-60
2022/08/11 02:15:19;;;;;;;8.43;6.82;;;;;;;19.85;53.64;102136.91;5046942;28;20039;-60
2022/08/11 02:17:58;;;;;;;8.25;6.63;;;;;;;19.83;53.32;102137.78;5045927;28;20059;-60
2022/08/11 02:26:08;;;;;;;8.05;6.53;;;;;;;19.71;54.06;102144.75;5038152;28;20071;-60
2022/08/11 02:29:05;;;;;;;8.82;6.65;;;;;;;19.70;53.80;102135.03;5029966;28;20022;-60
2022/08/11 02:34:56;;;;;;;10.60;6.95;;;;;;;19.66;53.56;102135.03;5043139;28;20052;-60
2022/08/11 02:37:30;;;;;;;9.35;6.55;;;;;;;19.58;54.37;102133.22;5039144;28;20045;-60
2022/08/11 02:39:59;;;;;;;8.35;6.78;;;;;;;19.54;54.70;102131.41;5046995;28;20057;-61
2022/08/11 02:42:49;;;;;;;8.32;6.72;;;;;;;19.50;54.09;102129.63;5032284;28;20067;-60
2022/08/11 02:45:38;;;;;;;7.65;6.45;;;;;;;19.45;54.29;102121.66;5046897;28;20492;-60
2022/08/11 02:51:19;;;;;;;8.10;6.43;;;;;;;19.38;54.66;102129.50;5041979;28;20123;-60
2022/08/11 02:53:56;;;;;;;10.57;6.72;;;;;;;19.34;54.83;102125.09;5048815;28;20044;-60
2022/08/11 02:56:53;;;;;;;8.45;6.40;;;;;;;19.32;54.81;102124.19;5047410;28;20021;-61
2022/08/11 03:02:39;;;;;;;9.77;6.80;;;;;;;19.22;55.07;102132.06;5041029;28;20534;-60
2022/08/11 03:05:15;;;;;;;9.32;6.80;;;;;;;19.16;55.40;102129.38;5046590;28;20032;-60
2022/08/11 03:07:59;;;;;;;10.90;7.07;;;;;;;19.13;54.94;102129.31;5039239;28;20116;-60
2022/08/11 03:10:28;;;;;;;9.10;6.40;;;;;;;19.04;55.71;102126.59;5050466;28;20229;-60
2022/08/11 03:16:44;;;;;;;10.20;7.45;;;;;;;18.98;54.85;102122.16;5050502;28;20047;-60
2022/08/11 03:19:33;;;;;;;9.48;7.95;;;;;;;18.93;54.78;102122.09;5050284;28;20103;-60
2022/08/11 03:22:11;;;;;;;10.18;7.38;;;;;;;18.89;55.46;102124.72;5050097;28;20617;-60
2022/08/11 03:25:15;;;;;;;10.43;7.70;;;;;;;18.89;54.58;102128.22;5052139;28;20025;-59
2022/08/11 03:27:59;;;;;;;11.00;8.15;;;;;;;18.84;55.24;102126.38;5039248;28;20029;-60
2022/08/11 03:30:27;;;;;;;10.27;8.00;;;;;;;18.81;55.57;102126.34;5052163;28;20147;-60
2022/08/11 03:36:14;;;;;;;11.98;8.55;;;;;;;18.74;55.04;102128.94;5051894;28;20079;-59
2022/08/11 03:38:59;;;;;;;11.00;8.65;;;;;;;18.72;55.14;102127.16;4996597;28;20032;-60
2022/08/11 03:41:59;;;;;;;12.05;8.13;;;;;;;18.70;55.38;102131.53;5042987;28;20076;-60
2022/08/11 03:44:31;;;;;;;;;;;;;;;18.78;54.37;102135.13;5043933;28;20045;-60
2022/08/11 03:47:13;;;;;;;12.40;8.43;;;;;;;18.66;55.47;102132.38;5046076;28;19917;-60
2022/08/11 03:49:47;;;;;;;11.13;8.73;;;;;;;18.64;55.83;102128.81;5040378;28;20032;-60
2022/08/11 03:52:13;;;;;;;11.15;9.05;;;;;;;18.59;56.17;102119.06;5048529;28;20037;-60
2022/08/11 03:54:59;;;;;;;12.98;8.57;;;;;;;18.59;55.98;102132.28;5045752;28;20033;-60
2022/08/11 03:57:39;;;;;;;10.57;8.20;;;;;;;18.53;57.13;102124.31;5046891;28;20025;-60
2022/08/11 04:00:32;;;;;;;12.98;8.32;;;;;;;18.56;56.19;102126.97;5050392;28;20045;-60
2022/08/11 04:03:16;;;;;;;12.40;8.35;;;;;;;18.49;56.78;102122.50;5038374;28;20061;-60
2022/08/11 04:05:44;;;;;;;10.13;7.97;;;;;;;18.45;57.38;102117.16;5047000;28;20071;-60
2022/08/11 04:08:30;;;;;;;13.32;8.50;;;;;;;18.46;56.55;102124.22;5049257;28;20492;-60
2022/08/11 04:11:31;;;;;;;10.32;8.63;;;;;;;18.46;56.20;102122.47;5040348;28;20030;-61
2022/08/11 04:17:35;;;;;;;11.25;8.25;;;;;;;18.38;56.37;102119.75;5052642;28;20427;-60
2022/08/11 04:20:41;;;;;;;10.30;8.40;;;;;;;18.37;56.06;102106.53;5048864;28;20083;-61
2022/08/11 04:23:23;;;;;;;11.25;7.93;;;;;;;18.32;56.85;102110.84;5047245;28;20036;-60
2022/08/11 04:26:11;;;;;;;10.95;8.05;;;;;;;18.32;56.73;102110.84;5047947;28;20017;-61
2022/08/11 04:29:03;;;;;;;11.35;8.18;;;;;;;18.30;56.82;102117.88;5034390;28;20041;-61
2022/08/11 04:31:48;;;;;;;10.27;8.23;;;;;;;18.25;58.12;102116.06;5048580;28;20064;-60
2022/08/11 04:34:44;;;;;;;11.07;8.15;;;;;;;18.25;56.95;102121.34;5049076;28;20083;-61
2022/08/11 04:37:35;;;;;;;11.40;8.23;;;;;;;18.18;57.64;102118.63;5048150;28;20124;-60
2022/08/11 04:40:23;;;;;;;9.63;7.78;;;;;;;18.19;57.06;102120.38;5047480;28;20045;-60
2022/08/11 04:43:19;;;;;;;13.90;8.75;;;;;;;18.11;58.27;102119.41;5038435;28;20530;-60
2022/08/11 04:46:06;;;;;;;9.60;8.25;;;;;;;18.10;57.81;102115.88;5048352;28;20595;-60
2022/08/11 05:07:11;;;;;;;11.95;8.57;;;;;;;17.99;58.71;102122.78;5047147;28;20036;-60
2022/08/11 05:09:58;;;;;;;11.40;9.10;;;;;;;17.98;58.97;102121.00;5044640;28;20461;-61
2022/08/11 05:12:43;;;;;;;11.82;8.80;;;;;;;17.99;58.62;102120.13;5048246;28;20071;-60
2022/08/11 05:35:36;;;;;;;14.15;10.35;;;;;;;17.96;59.48;102125.34;5048222;28;20080;-60
2022/08/11 05:57:31;;;;;;;14.82;12.13;;;;;;;17.98;61.61;102132.41;5049743;28;20044;-60
2022/08/11 06:00:09;;;;;;;16.67;12.50;;;;;;;17.99;61.15;102131.56;5047359;28;20098;-61
2022/08/11 06:02:43;;;;;;;18.95;12.40;;;;;;;18.00;62.32;102130.72;5048028;28;20031;-61
2022/08/11 06:05:09;;;;;;;16.92;12.63;;;;;;;18.02;60.96;102122.81;5034092;28;20033;-61
2022/08/11 06:07:34;;;;;;;16.08;12.25;;;;;;;18.04;61.81;102134.25;5043787;28;20468;-60
2022/08/11 06:10:01;;;;;;;14.90;12.98;;;;;;;18.04;62.85;102129.84;5044341;28;20025;-60
2022/08/11 06:12:34;;;;;;;15.85;13.07;;;;;;;18.07;62.28;102131.66;5045380;28;20059;-60
2022/08/11 06:15:04;;;;;;;16.55;12.73;;;;;;;18.06;62.66;102133.41;5041061;28;20080;-59
2022/08/11 06:17:32;;;;;;;18.60;12.70;;;;;;;18.10;62.47;102136.09;5049789;28;20012;-60
2022/08/11 06:20:08;;;;;;;14.00;12.40;;;;;;;18.16;61.46;102134.44;5032318;28;20028;-60
2022/08/11 06:22:34;;;;;;;13.90;12.23;;;;;;;18.18;63.08;102135.31;5048387;28;20035;-60
2022/08/11 06:25:01;;;;;;;15.18;12.27;;;;;;;18.18;63.60;102135.31;5044662;28;20025;-61
2022/08/11 06:27:30;;;;;;;15.23;10.90;;;;;;;18.25;61.73;102137.19;5047251;28;20068;-61
2022/08/11 06:29:57;;;;;;;14.35;11.00;;;;;;;18.29;61.50;102137.22;5045795;28;20017;-60
2022/08/11 06:32:34;;;;;;;14.02;10.07;;;;;;;18.36;61.65;102141.69;5043015;28;20083;-60
2022/08/11 06:35:25;;;;;;;12.60;10.40;;;;;;;18.41;61.56;102142.66;5043393;28;20029;-61
2022/08/11 06:38:15;;;;;;;14.55;10.95;;;;;;;18.51;61.33;102136.59;5041985;28;20075;-60
2022/08/11 06:43:50;;;;;;;16.75;11.50;;;;;;;18.64;61.44;102148.19;5047822;28;19978;-60
2022/08/11 06:46:22;;;;;;;13.85;10.25;;;;;;;18.70;61.54;102144.75;5048905;28;20028;-60
2022/08/11 06:48:48;;;;;;;13.48;9.38;;;;;;;18.75;61.91;102143.00;5045894;28;20108;-60
2022/08/11 06:51:15;;;;;;;12.23;9.73;;;;;;;18.83;62.06;102140.44;5052251;28;20063;-60
2022/08/11 06:53:49;;;;;;;14.73;9.98;;;;;;;18.89;61.27;102144.06;5049574;28;20025;-59
2022/08/11 07:02:15;;;;;;;14.95;10.10;;;;;;;19.13;61.16;102154.88;5047334;28;20047;-59
2022/08/11 07:04:50;;;;;;;14.07;9.48;;;;;;;19.23;60.32;102146.13;5047262;28;20021;-60
2022/08/11 07:16:27;;;;;;;13.05;10.02;;;;;;;19.59;60.08;102148.19;5041962;28;20518;-60
2022/08/11 07:30:29;;;;;;;13.65;9.90;;;;;;;20.01;58.19;102134.38;5049529;28;20071;-60
2022/08/11 07:32:59;;;;;;;12.55;9.13;;;;;;;20.08;59.27;102138.81;5050254;28;20116;-60
2022/08/11 07:35:34;;;;;;;14.45;10.77;;;;;;;20.17;58.08;102136.19;5044893;28;20035;-59
2022/08/11 07:38:10;;;;;;;21.27;10.23;;;;;;;20.28;57.89;102141.56;5045912;28;20048;-60
2022/08/11 07:40:37;;;;;;;15.75;10.30;;;;;;;20.37;57.05;102141.56;5050316;28;20044;-60
2022/08/11 07:43:05;;;;;;;17.70;10.95;;;;;;;20.47;57.16;102139.84;5048467;28;20109;-61
2022/08/11 07:54:04;;;;;;;16.92;11.60;;;;;;;20.78;56.55;102148.81;4957221;28;20593;-60
2022/08/11 07:56:35;;;;;;;15.07;10.43;;;;;;;20.86;55.87;102148.81;4976019;28;20128;-60
2022/08/11 08:18:22;;;;;;;12.40;9.30;;;;;;;21.67;52.69;102141.78;4976466;28;20552;-60
2022/08/11 08:20:49;;;;;;;15.18;10.15;;;;;;;21.76;51.27;102133.78;5047641;28;20108;-60
2022/08/11 08:23:16;;;;;;;13.73;9.05;;;;;;;21.80;51.91;102145.28;5043142;28;20053;-60
2022/08/11 08:25:44;;;;;;;15.00;9.32;;;;;;;21.90;51.47;102149.69;5046765;28;20024;-60
2022/08/11 08:28:13;;;;;;;11.82;8.98;;;;;;;21.97;51.18;102140.81;5041525;28;20123;-61
2022/08/11 08:30:50;;;;;;;14.40;9.45;;;;;;;22.03;51.98;102135.47;5044578;28;20033;-60
2022/08/11 08:33:20;;;;;;;13.55;9.95;;;;;;;22.18;49.36;102136.31;5040334;28;20037;-59
2022/08/11 08:35:48;;;;;;;12.48;8.88;;;;;;;22.28;51.16;102140.69;5047376;28;20408;-59
2022/08/11 08:38:14;;;;;;;15.25;9.95;;;;;;;22.38;50.27;102137.13;5047703;28;20480;-59
2022/08/11 08:40:42;;;;;;;14.32;9.48;;;;;;;22.49;50.82;102141.50;5049536;28;20500;-59
2022/08/11 08:43:16;;;;;;;13.40;8.77;;;;;;;22.58;50.75;102141.47;5045411;28;20029;-62
2022/08/11 08:45:42;;;;;;;12.15;9.75;;;;;;;22.71;49.37;102137.84;5025515;28;21413;-60
2022/08/11 08:48:13;;;;;;;12.60;9.25;;;;;;;22.85;49.67;102134.19;5050974;28;20029;-60
2022/08/11 08:53:43;;;;;;;12.00;8.90;;;;;;;23.07;49.11;102135.81;5045653;28;20051;-60
2022/08/11 08:56:09;;;;;;;12.10;9.90;;;;;;;23.14;47.86;102144.63;5042301;28;20021;-60
2022/08/11 08:58:37;;;;;;;16.48;9.85;;;;;;;23.26;48.38;102135.69;5041281;28;20024;-60
2022/08/11 09:01:04;;;;;;;11.63;9.53;;;;;;;23.30;47.51;102136.53;5046692;28;20061;-61
2022/08/11 09:03:31;;;;;;;12.35;8.75;;;;;;;23.41;48.58;102132.88;5043657;28;20036;-59
2022/08/11 09:05:57;;;;;;;13.65;9.50;;;;;;;23.53;48.02;102137.19;5046299;28;20021;-60
2022/08/11 09:08:23;;;;;;;13.73;9.45;;;;;;;23.63;47.37;102130.00;5042557;28;20483;-59
2022/08/11 09:11:48;;;;;;;13.20;9.82;;;;;;;23.71;47.07;102130.81;5045912;28;20040;-60
2022/08/11 09:13:36;;;;;;;12.95;10.48;;;;;;;23.84;46.19;102134.22;5039367;28;20036;-60
2022/08/11 09:16:04;;;;;;;11.60;10.07;;;;;;;23.99;45.58;102127.00;5046826;28;20037;-60
2022/08/11 09:18:31;;;;;;;11.07;9.85;;;;;;;24.06;46.75;102128.69;5044901;28;20503;-59
2022/08/11 09:20:57;;;;;;;14.20;9.73;;;;;;;24.17;47.36;102125.88;5045415;28;20056;-60
2022/08/11 09:28:52;;;;;;;14.35;9.77;;;;;;;24.59;45.98;102121.78;5045960;28;20455;-60
2022/08/11 09:31:20;;;;;;;12.23;9.77;;;;;;;24.78;46.18;102133.06;5047609;28;20487;-60
2022/08/11 09:33:46;;;;;;;12.98;10.05;;;;;;;24.93;43.89;102117.72;5049172;28;20028;-60
2022/08/11 09:41:44;;;;;;;12.82;10.27;;;;;;;25.32;43.42;102116.19;5042124;28;20107;-60
2022/08/11 09:46:58;;;;;;;17.90;9.45;;;;;;;25.54;42.82;102109.59;5037482;28;20043;-59
2022/08/11 09:49:24;;;;;;;13.73;9.50;;;;;;;25.63;42.00;102112.06;5043844;28;20021;-59
2022/08/11 09:51:50;;;;;;;13.63;9.85;;;;;;;25.74;40.97;102107.41;5047480;28;20479;-59
2022/08/11 09:54:17;;;;;;;11.52;9.55;;;;;;;25.76;41.90;102113.56;5039376;28;20041;-59
2022/08/11 09:59:28;;;;;;;14.27;10.00;;;;;;;25.94;39.96;102108.78;5038936;28;20045;-59
2022/08/11 10:02:01;;;;;;;11.20;9.85;;;;;;;26.03;40.40;102096.16;5047139;28;20029;-59
2022/08/11 10:04:37;;;;;;;14.43;9.82;;;;;;;26.07;41.00;102105.00;5043166;28;20094;-60
2022/08/11 10:07:05;;;;;;;12.27;9.98;;;;;;;26.15;40.83;102094.13;5049848;28;20036;-60
2022/08/11 10:09:39;;;;;;;;;;;;;;;26.30;42.38;102100.91;5050532;28;20025;-60
2022/08/11 10:12:09;;;;;;;14.40;10.40;;;;;;;26.45;38.91;102094.38;5049962;28;20379;-60
2022/08/11 10:17:28;;;;;;;11.60;10.40;;;;;;;26.66;39.10;102085.81;5048523;28;20570;-59
2022/08/11 10:19:56;;;;;;;;;;;;;;;26.80;41.12;102085.53;5050437;28;20021;-60
2022/08/11 10:27:58;;;;;;;11.45;9.68;;;;;;;27.09;36.27;102083.03;5039642;28;20128;-60
2022/08/11 10:36:00;;;;;;;12.93;9.68;;;;;;;27.39;37.34;102079.56;5044921;28;20116;-60
2022/08/11 10:38:27;;;;;;;15.00;10.45;;;;;;;27.55;35.76;102074.66;5044524;28;20033;-60
2022/08/11 10:43:40;;;;;;;13.57;10.23;;;;;;;27.73;35.91;102067.03;5048223;28;20079;-60
2022/08/11 10:48:55;;;;;;;12.80;9.65;;;;;;;27.93;35.34;102072.66;5049923;28;20036;-57
2022/08/11 10:59:35;;;;;;;18.17;9.57;;;;;;;28.30;36.01;102060.00;5041866;28;20040;-55
2022/08/11 11:02:02;;;;;;;11.60;9.63;;;;;;;28.39;34.71;102069.53;5008699;28;20029;-56
2022/08/11 11:04:46;;;;;;;11.20;9.98;;;;;;;28.46;35.23;102063.06;5041558;28;20025;-56
2022/08/11 11:07:26;;;;;;;17.73;10.18;;;;;;;28.55;36.65;102062.75;5040679;28;20078;-55
2022/08/11 11:10:02;;;;;;;12.23;9.40;;;;;;;28.61;34.87;102054.53;5035883;28;20147;-58
2022/08/11 11:18:25;;;;;;;10.30;9.20;;;;;;;28.90;33.44;102049.97;5043762;28;20406;-59
2022/08/11 11:21:03;;;;;;;11.93;9.68;;;;;;;29.02;34.39;102046.00;5041480;28;20104;-59
2022/08/11 11:23:52;;;;;;;13.93;8.90;;;;;;;29.09;33.90;102044.84;5040687;28;20484;-59
2022/08/11 11:26:55;;;;;;;10.57;9.23;;;;;;;29.16;32.69;102045.53;5038475;28;20033;-59
2022/08/11 11:30:03;;;;;;;11.00;8.80;;;;;;;29.22;33.58;102039.97;5024077;28;20029;-59
2022/08/11 11:33:06;;;;;;;11.93;8.57;;;;;;;29.29;33.03;102036.13;5046946;28;20028;-59
2022/08/11 11:35:48;;;;;;;9.68;8.77;;;;;;;29.33;32.41;102041.38;5012904;28;20045;-60
2022/08/11 11:38:16;;;;;;;11.30;8.90;;;;;;;29.43;32.16;102037.41;5046855;28;20031;-60
2022/08/11 11:40:41;;;;;;;9.02;8.05;;;;;;;29.48;29.78;102035.44;5049113;28;20128;-60
2022/08/11 11:43:07;;;;;;;11.57;8.10;;;;;;;29.46;30.04;102029.25;5052729;28;20104;-59
2022/08/11 11:45:33;;;;;;;12.80;7.90;;;;;;;29.51;31.40;102029.09;5052790;28;20100;-59
2022/08/11 11:48:00;;;;;;;10.25;8.23;;;;;;;29.60;30.50;102024.22;5050002;28;20078;-60
2022/08/11 11:50:28;;;;;;;11.95;8.55;;;;;;;29.64;32.60;102023.19;5053037;28;20028;-60
2022/08/11 11:52:54;;;;;;;10.30;8.90;;;;;;;29.77;32.37;102020.03;5052724;28;20484;-60
2022/08/11 11:55:23;;;;;;;10.00;8.23;;;;;;;29.87;32.06;102021.47;5046792;28;20071;-59
2022/08/11 12:03:20;;;;;;;11.57;7.60;;;;;;;30.14;29.65;102011.44;5046478;28;20107;-60
2022/08/11 12:05:46;;;;;;;8.75;7.05;;;;;;;30.16;29.84;102014.06;5042030;28;20021;-60
2022/08/11 12:08:16;;;;;;;11.55;7.80;;;;;;;30.23;28.53;102011.97;5052309;28;20031;-60
2022/08/11 12:10:45;;;;;;;8.88;7.07;;;;;;;30.23;27.80;101999.44;5050777;28;20121;-60
2022/08/11 12:16:00;;;;;;;9.30;8.15;;;;;;;30.39;29.32;102005.03;5032240;28;20058;-60
2022/08/11 12:18:25;;;;;;;7.72;6.60;;;;;;;30.38;26.20;102010.50;5032011;28;20465;-60
2022/08/11 12:20:51;;;;;;;9.25;6.50;;;;;;;30.40;25.57;102005.91;5043426;28;20077;-60
2022/08/11 12:28:46;;;;;;;9.15;6.78;;;;;;;30.56;26.51;101999.00;5050814;28;20553;-60
2022/08/11 12:31:12;;;;;;;7.78;6.80;;;;;;;30.61;26.53;101988.91;5051525;28;20013;-61
2022/08/11 12:33:39;;;;;;;8.20;6.57;;;;;;;30.73;29.17;101989.31;5044029;28;20496;-60
2022/08/11 12:36:08;;;;;;;9.57;7.27;;;;;;;30.76;26.71;101992.72;5031689;28;20461;-59
2022/08/11 12:38:34;;;;;;;10.85;7.18;;;;;;;30.79;27.61;101981.88;5034502;28;20025;-59
2022/08/11 12:46:32;;;;;;;9.25;6.97;;;;;;;30.98;28.10;101972.94;5043728;28;20040;-60
2022/08/11 12:51:57;;;;;;;9.00;6.80;;;;;;;31.13;27.28;101960.69;5042047;28;20099;-60
2022/08/11 12:54:32;;;;;;;8.02;7.22;;;;;;;31.18;27.14;101955.94;5042123;28;20029;-60
2022/08/11 13:05:33;;;;;;;9.27;6.93;;;;;;;31.26;26.98;101953.78;5046590;28;20083;-60
2022/08/11 13:08:02;;;;;;;8.98;7.07;;;;;;;31.30;26.75;101952.69;5046691;28;20055;-60
2022/08/11 13:13:17;;;;;;;6.93;6.22;;;;;;;31.32;24.53;101944.53;5042525;28;20048;-60
2022/08/11 13:15:45;;;;;;;8.10;6.50;;;;;;;31.29;26.11;101942.84;5042584;28;20449;-60
2022/08/11 13:18:22;;;;;;;9.88;6.50;;;;;;;31.38;25.66;101950.50;5047895;28;20369;-60
2022/08/11 13:20:50;;;;;;;8.00;6.47;;;;;;;31.41;26.01;101935.16;5043645;28;20537;-60
2022/08/11 13:23:17;;;;;;;8.00;6.50;;;;;;;31.42;25.82;101934.22;5042546;28;20028;-60
2022/08/11 13:25:43;;;;;;;7.88;7.07;;;;;;;31.46;26.02;101931.31;5039638;28;20034;-60
2022/08/11 13:28:11;;;;;;;7.72;6.93;;;;;;;31.53;25.32;101931.84;5022221;28;20423;-59
2022/08/11 13:33:21;;;;;;;9.43;7.35;;;;;;;31.53;26.28;101926.47;5042004;28;20174;-60
2022/08/11 13:35:50;;;;;;;9.70;7.22;;;;;;;31.55;26.46;101925.47;5040345;28;20471;-60
2022/08/11 13:38:18;;;;;;;8.80;6.97;;;;;;;31.59;25.72;101928.03;5043809;28;20160;-59
2022/08/11 13:40:44;;;;;;;10.90;6.97;;;;;;;31.65;26.11;101925.06;5036550;28;20057;-60
2022/08/11 13:43:12;;;;;;;10.52;7.40;;;;;;;31.67;27.09;101929.41;5041037;28;20033;-60
2022/08/11 13:45:38;;;;;;;7.78;6.88;;;;;;;31.73;26.61;101923.75;5038708;28;20167;-60
2022/08/11 13:48:11;;;;;;;9.27;7.03;;;;;;;31.82;26.87;101919.72;5042192;28;20079;-60
2022/08/11 13:53:23;;;;;;;9.38;7.53;;;;;;;31.92;26.21;101920.13;5039900;28;20155;-60
2022/08/11 13:55:49;;;;;;;8.65;7.05;;;;;;;32.01;26.55;101918.78;5050205;28;20036;-60
2022/08/11 13:58:16;;;;;;;8.73;7.82;;;;;;;32.00;26.61;101917.94;5049662;28;20025;-60
2022/08/11 14:00:46;;;;;;;9.68;7.07;;;;;;;32.04;26.36;101908.75;5046535;28;20025;-59
2022/08/11 14:03:13;;;;;;;7.38;6.68;;;;;;;32.07;25.86;101913.97;5037386;28;20190;-60
2022/08/11 14:05:45;;;;;;;9.25;6.78;;;;;;;32.02;25.67;101913.34;5050215;28;20054;-60
2022/08/11 14:08:14;;;;;;;7.68;6.85;;;;;;;32.02;24.75;101910.66;5050277;28;20044;-59
2022/08/11 14:10:40;;;;;;;8.05;7.20;;;;;;;32.02;25.12;101913.34;5049912;28;20031;-60
2022/08/11 14:16:03;;;;;;;7.97;6.68;;;;;;;32.09;25.94;101895.00;5044074;28;20075;-60
2022/08/11 14:18:31;;;;;;;12.35;6.72;;;;;;;32.08;24.12;101906.75;5038460;28;20105;-61
2022/08/11 14:23:49;;;;;;;12.48;6.90;;;;;;;31.98;23.85;101902.78;5040582;28;20047;-60
2022/08/11 14:26:22;;;;;;;9.60;6.57;;;;;;;31.90;24.27;101900.47;5040023;28;20052;-58
2022/08/11 14:28:50;;;;;;;8.73;6.60;;;;;;;31.94;25.03;101898.47;5043199;28;20034;-62
2022/08/11 14:31:16;;;;;;;;;;;;;;;32.06;26.79;101890.66;5032433;28;20183;-61
2022/08/11 14:33:43;;;;;;;9.00;6.82;;;;;;;32.08;26.08;101888.75;5043517;28;20444;-60
2022/08/11 14:36:10;;;;;;;7.15;6.38;;;;;;;32.08;25.42;101891.47;5043750;28;20108;-65
2022/08/11 14:38:39;;;;;;;9.43;6.68;;;;;;;32.08;24.63;101888.75;5043900;28;20059;-63
2022/08/11 14:49:23;;;;;;;7.90;7.10;;;;;;;31.97;23.63;101883.03;5044183;28;20122;-62
2022/08/11 14:51:53;;;;;;;9.32;7.05;;;;;;;31.93;23.64;101884.13;5043437;28;20057;-61
2022/08/11 14:57:06;;;;;;;7.65;6.85;;;;;;;31.97;26.62;101882.19;5046162;28;20464;-63
2022/08/11 14:59:32;;;;;;;7.07;6.38;;;;;;;31.95;25.36;101879.56;5043641;28;20108;-60
2022/08/11 15:04:45;;;;;;;8.25;6.95;;;;;;;32.05;24.62;101870.06;5047925;28;20094;-60
2022/08/11 15:07:11;;;;;;;7.65;6.38;;;;;;;32.08;24.01;101860.91;5049227;28;20396;-60
2022/08/11 15:09:42;;;;;;;10.52;6.05;;;;;;;32.13;25.54;101856.19;5049633;28;20028;-61
2022/08/11 15:12:07;;;;;;;7.75;6.63;;;;;;;32.13;23.58;101852.63;5050197;28;20060;-60
2022/08/11 15:17:20;;;;;;;10.35;6.88;;;;;;;32.14;24.86;101855.25;5044356;28;20576;-60
2022/08/11 15:25:15;;;;;;;11.55;7.82;;;;;;;32.21;24.98;101853.09;5050449;28;20420;-60
2022/08/11 15:38:56;;;;;;;6.90;5.57;;;;;;;32.26;25.00;101840.25;5046212;28;20401;-60
2022/08/11 15:47:01;;;;;;;6.15;5.55;;;;;;;32.23;24.40;101825.09;5052914;28;20090;-60
2022/08/11 15:49:38;;;;;;;7.35;5.82;;;;;;;32.29;25.23;101818.50;5052663;28;20024;-61
2022/08/11 15:52:14;;;;;;;9.02;5.70;;;;;;;32.34;25.44;101820.97;5031627;28;20484;-60
2022/08/11 15:54:42;;;;;;;8.23;5.95;;;;;;;32.35;25.15;101828.97;5046328;28;20481;-60
2022/08/11 16:04:09;;;;;;;6.90;5.68;;;;;;;32.34;25.34;101821.84;5045119;28;20043;-61
2022/08/11 16:05:22;;;;;;;6.50;5.47;;;;;;;32.36;25.68;101816.38;5043158;28;20040;-60
2022/08/11 16:07:50;;;;;;;9.05;5.60;;;;;;;32.32;24.66;101815.66;5046234;28;20032;-60
2022/08/11 16:10:21;;;;;;;6.47;5.72;;;;;;;32.29;24.36;101818.50;5043926;28;20809;-60
2022/08/11 16:18:21;;;;;;;7.78;5.22;;;;;;;32.30;25.43;101808.59;5044793;28;20044;-62
2022/08/11 16:20:50;;;;;;;6.10;5.47;;;;;;;32.29;23.64;101806.88;5043409;28;20021;-62
2022/08/11 16:23:18;;;;;;;9.80;5.90;;;;;;;32.30;24.13;101800.50;5045933;28;20025;-60
2022/08/11 16:25:45;;;;;;;6.10;5.50;;;;;;;32.26;23.04;101799.78;5050539;28;20572;-62
2022/08/11 16:28:12;;;;;;;13.00;5.93;;;;;;;32.20;24.69;101802.81;5045645;28;20056;-61
2022/08/11 16:30:40;;;;;;;6.80;5.70;;;;;;;32.20;24.16;101798.28;5047539;28;20036;-62
2022/08/11 16:33:08;;;;;;;6.28;5.68;;;;;;;32.11;24.56;101792.47;5048475;28;20060;-61
2022/08/11 16:38:35;;;;;;;12.63;5.38;;;;;;;32.06;25.54;101793.59;5045174;28;20551;-63
2022/08/11 16:41:09;;;;;;;6.95;5.25;;;;;;;32.10;25.69;101790.72;5040023;28;20436;-62
2022/08/11 16:49:39;;;;;;;6.80;6.05;;;;;;;32.04;24.92;101789.25;5023981;28;20124;-60
2022/08/11 16:52:09;;;;;;;7.13;5.38;;;;;;;32.05;25.14;101788.28;5041194;28;20053;-61